Time;durP1;ratioP1;P1;durP2;ratioP2;P2;SDS_P1;SDS_P2;PMS_P1;PMS_P2;Temp;Humidity;BMP_temperature;BMP_pressure;BME280_temperature;BME280_humidity;BME280_pressure;Samples;Min_cycle;Max_cycle;Signal;HPM_P1;HPM_P2
2021/09/25 00:00:33;;;;;;;3.67;3.38;;;17.50;99.90;;;;;;4922249;29;20134;-94
2021/09/25 00:03:00;;;;;;;4.22;3.00;;;17.50;99.90;;;;;;4922313;29;20078;-94
2021/09/25 00:05:35;;;;;;;5.55;3.00;;;17.50;99.90;;;;;;4922112;29;20044;-94
2021/09/25 00:08:02;;;;;;;3.60;2.97;;;17.40;99.90;;;;;;4921955;29;20031;-94
2021/09/25 00:10:28;;;;;;;6.97;2.97;;;17.40;99.90;;;;;;4922290;29;20031;-93
2021/09/25 00:12:54;;;;;;;3.83;2.65;;;17.40;99.90;;;;;;4922470;29;20024;-92
2021/09/25 00:15:21;;;;;;;4.65;2.30;;;17.40;99.90;;;;;;4922802;29;20116;-94
2021/09/25 00:17:47;;;;;;;4.25;3.03;;;17.40;99.90;;;;;;4922604;29;20034;-93
2021/09/25 00:20:15;;;;;;;3.20;2.65;;;17.30;99.90;;;;;;4922251;29;20027;-94
2021/09/25 00:22:42;;;;;;;3.47;2.50;;;17.30;99.90;;;;;;4930127;29;20032;-92
2021/09/25 00:25:08;;;;;;;3.85;2.75;;;17.30;99.90;;;;;;4926952;29;20039;-93
2021/09/25 00:27:34;;;;;;;6.43;4.40;;;17.30;99.90;;;;;;4922411;29;20036;-92
2021/09/25 00:30:00;;;;;;;9.10;3.67;;;17.30;99.90;;;;;;4938909;29;20118;-94
2021/09/25 00:32:26;;;;;;;6.38;3.78;;;17.30;99.90;;;;;;4922274;29;20031;-94
2021/09/25 00:34:52;;;;;;;4.00;3.55;;;17.30;99.90;;;;;;4922069;29;20027;-93
2021/09/25 00:37:18;;;;;;;6.72;3.45;;;17.30;99.90;;;;;;4921724;29;20027;-93
2021/09/25 00:39:44;;;;;;;7.22;3.67;;;17.30;99.90;;;;;;4938383;29;20118;-93
2021/09/25 00:42:09;;;;;;;8.32;4.05;;;17.30;99.90;;;;;;4938649;29;20035;-94
2021/09/25 00:44:35;;;;;;;5.30;4.07;;;17.20;99.90;;;;;;4921447;29;20040;-93
2021/09/25 00:47:01;;;;;;;6.32;4.03;;;17.20;99.90;;;;;;4921939;29;20118;-92
2021/09/25 00:49:27;;;;;;;4.45;3.67;;;17.20;99.90;;;;;;4921509;29;20035;-93
2021/09/25 00:51:53;;;;;;;5.10;3.90;;;17.20;99.90;;;;;;4921413;29;20047;-94
2021/09/25 00:54:18;;;;;;;5.85;3.30;;;17.20;99.90;;;;;;4922015;29;20031;-92
2021/09/25 00:56:47;;;;;;;6.30;4.60;;;17.20;99.90;;;;;;4921408;29;20075;-93
2021/09/25 00:59:14;;;;;;;4.78;3.53;;;17.20;99.90;;;;;;4921661;29;20489;-93
2021/09/25 01:01:41;;;;;;;6.40;3.20;;;17.20;99.90;;;;;;4938280;29;20501;-92
2021/09/25 01:04:07;;;;;;;5.43;3.00;;;17.20;99.90;;;;;;4921862;29;20035;-92
2021/09/25 01:06:33;;;;;;;4.55;3.13;;;17.20;99.90;;;;;;4921922;29;20040;-93
2021/09/25 01:08:59;;;;;;;5.50;2.60;;;17.20;99.90;;;;;;4921769;29;20032;-94
2021/09/25 01:11:26;;;;;;;5.68;2.92;;;17.20;99.90;;;;;;4921747;29;20032;-93
2021/09/25 01:13:53;;;;;;;3.30;2.70;;;17.20;99.90;;;;;;4921499;29;20086;-94
2021/09/25 01:16:20;;;;;;;11.32;2.42;;;17.20;99.90;;;;;;4938454;29;20110;-94
2021/09/25 01:18:47;;;;;;;3.15;2.40;;;17.10;99.90;;;;;;4922228;29;20074;-94
2021/09/25 01:21:12;;;;;;;3.83;2.50;;;17.10;99.90;;;;;;4922712;29;20126;-94
2021/09/25 01:23:39;;;;;;;5.50;2.42;;;17.20;99.90;;;;;;4922965;29;20090;-94
2021/09/25 01:26:05;;;;;;;4.25;2.55;;;17.20;99.90;;;;;;4921140;29;20035;-93
2021/09/25 01:28:32;;;;;;;4.25;2.90;;;17.10;99.90;;;;;;4927323;29;20024;-95
2021/09/25 01:30:59;;;;;;;3.58;2.30;;;17.10;99.90;;;;;;4921044;29;20036;-94
2021/09/25 01:33:35;;;;;;;3.90;2.63;;;17.10;99.90;;;;;;4921108;29;20163;-94
2021/09/25 01:36:00;;;;;;;5.28;2.67;;;17.10;99.90;;;;;;4921047;29;20024;-94
2021/09/25 01:38:26;;;;;;;5.35;2.85;;;17.10;99.90;;;;;;4921109;29;20028;-94
2021/09/25 01:40:52;;;;;;;4.07;2.95;;;17.10;99.90;;;;;;4921552;29;20024;-93
2021/09/25 01:43:18;;;;;;;7.57;3.08;;;17.10;99.90;;;;;;4921247;29;20035;-93
2021/09/25 01:45:45;;;;;;;4.05;2.50;;;17.10;99.90;;;;;;4920928;29;20047;-95
2021/09/25 01:48:12;;;;;;;3.05;2.60;;;17.10;99.90;;;;;;4920840;29;20027;-93
2021/09/25 01:50:39;;;;;;;3.50;2.80;;;17.20;99.90;;;;;;4920614;29;20023;-93
2021/09/25 01:53:05;;;;;;;3.60;2.83;;;17.10;99.90;;;;;;4920920;29;20024;-93
2021/09/25 01:55:31;;;;;;;4.80;2.60;;;17.10;99.90;;;;;;4920932;29;20032;-94
2021/09/25 01:57:57;;;;;;;7.70;3.47;;;17.10;99.90;;;;;;4920750;29;20537;-94
2021/09/25 02:00:24;;;;;;;4.40;3.05;;;17.10;99.90;;;;;;4920899;29;20048;-93
2021/09/25 02:02:53;;;;;;;4.53;3.50;;;17.10;99.90;;;;;;4920905;29;20063;-94
2021/09/25 02:05:21;;;;;;;3.80;3.33;;;17.10;99.90;;;;;;4920732;29;20039;-93
2021/09/25 02:07:48;;;;;;;4.55;3.42;;;17.10;99.90;;;;;;4921078;29;20031;-93
2021/09/25 02:10:14;;;;;;;3.88;3.42;;;17.10;99.90;;;;;;4929647;29;20036;-93
2021/09/25 02:12:40;;;;;;;5.32;3.60;;;17.10;99.90;;;;;;4930678;29;20024;-93
2021/09/25 02:15:07;;;;;;;4.43;3.50;;;17.10;99.90;;;;;;4928936;29;20114;-92
2021/09/25 02:17:33;;;;;;;5.00;3.22;;;17.10;99.90;;;;;;4926454;29;20028;-92
2021/09/25 02:19:59;;;;;;;6.53;3.33;;;17.10;99.90;;;;;;4924676;29;20031;-92
2021/09/25 02:22:25;;;;;;;6.53;3.63;;;17.10;99.90;;;;;;4920083;29;20050;-93
2021/09/25 02:24:51;;;;;;;5.38;3.20;;;17.10;99.90;;;;;;4920020;29;20043;-94
2021/09/25 02:27:17;;;;;;;5.47;3.33;;;17.10;99.90;;;;;;4920311;29;20398;-93
2021/09/25 02:29:42;;;;;;;5.25;3.10;;;17.10;99.90;;;;;;4920290;29;20032;-94
2021/09/25 02:32:09;;;;;;;4.75;2.95;;;17.10;99.90;;;;;;4946581;29;20035;-94
2021/09/25 02:34:35;;;;;;;5.00;2.90;;;17.10;99.90;;;;;;4931364;29;20042;-94
2021/09/25 02:37:02;;;;;;;5.57;3.05;;;17.10;99.90;;;;;;4920879;29;20456;-94
2021/09/25 02:39:29;;;;;;;4.38;2.67;;;17.10;99.90;;;;;;4920621;29;20196;-94
2021/09/25 02:41:56;;;;;;;3.75;2.45;;;17.10;99.90;;;;;;4920439;29;20023;-93
2021/09/25 02:44:22;;;;;;;6.70;2.83;;;17.10;99.90;;;;;;4936700;29;20035;-93
2021/09/25 02:46:48;;;;;;;4.55;3.38;;;17.10;99.90;;;;;;4919931;29;20042;-94
2021/09/25 02:49:18;;;;;;;3.65;3.00;;;17.10;99.90;;;;;;4921099;29;20048;-93
2021/09/25 02:51:44;;;;;;;8.50;3.90;;;17.00;99.90;;;;;;4941107;29;20398;-93
2021/09/25 02:54:10;;;;;;;4.53;3.00;;;17.00;99.90;;;;;;4923807;29;20031;-93
2021/09/25 02:56:36;;;;;;;5.32;3.25;;;17.10;99.90;;;;;;4923725;29;20036;-94
2021/09/25 02:59:03;;;;;;;5.40;3.00;;;17.10;99.90;;;;;;4923142;29;20043;-94
2021/09/25 03:01:29;;;;;;;3.60;2.55;;;17.00;99.90;;;;;;4923303;29;20059;-94
2021/09/25 03:03:55;;;;;;;4.03;2.50;;;17.00;99.90;;;;;;4923505;29;20036;-93
2021/09/25 03:06:22;;;;;;;2.72;1.95;;;17.00;99.90;;;;;;4923178;29;20039;-93
2021/09/25 03:08:48;;;;;;;4.43;2.58;;;17.10;99.90;;;;;;4923382;29;20028;-93
2021/09/25 03:11:14;;;;;;;2.38;2.17;;;17.10;99.90;;;;;;4923413;29;20493;-94
2021/09/25 03:13:39;;;;;;;5.55;2.60;;;17.00;99.90;;;;;;4923055;29;20027;-94
2021/09/25 03:16:05;;;;;;;3.60;2.40;;;17.10;99.90;;;;;;4923115;29;20417;-93
2021/09/25 03:18:31;;;;;;;3.45;2.30;;;17.00;99.90;;;;;;4923174;29;20390;-93
2021/09/25 03:20:56;;;;;;;3.30;2.35;;;17.10;99.90;;;;;;4923206;29;20119;-93
2021/09/25 03:23:22;;;;;;;2.55;2.22;;;17.00;99.90;;;;;;4923200;29;20469;-93
2021/09/25 03:25:47;;;;;;;3.15;2.40;;;17.00;99.90;;;;;;4922948;29;20035;-95
2021/09/25 03:28:13;;;;;;;3.35;2.78;;;17.00;99.90;;;;;;4922912;29;20032;-93
2021/09/25 03:30:39;;;;;;;5.18;3.00;;;17.00;99.90;;;;;;4923086;29;20606;-93
2021/09/25 03:33:04;;;;;;;3.72;2.47;;;17.00;99.90;;;;;;4923371;29;20052;-93
2021/09/25 03:35:30;;;;;;;4.22;2.40;;;17.00;99.90;;;;;;4923272;29;20028;-93
2021/09/25 03:37:56;;;;;;;3.40;2.35;;;17.00;99.90;;;;;;4923626;29;20050;-93
2021/09/25 03:40:22;;;;;;;3.03;2.72;;;17.00;99.90;;;;;;4924097;29;20489;-93
2021/09/25 03:42:49;;;;;;;3.80;2.60;;;17.00;99.90;;;;;;4934033;29;20031;-95
2021/09/25 03:45:15;;;;;;;3.35;2.40;;;17.00;99.90;;;;;;4923113;29;20044;-94
2021/09/25 03:47:41;;;;;;;4.10;2.22;;;17.00;99.90;;;;;;4923392;29;20071;-93
2021/09/25 03:50:07;;;;;;;6.30;2.55;;;17.00;99.90;;;;;;4923069;29;20027;-92
2021/09/25 03:52:34;;;;;;;4.20;2.10;;;17.00;99.90;;;;;;4940361;29;20023;-95
2021/09/25 03:54:59;;;;;;;2.22;2.03;;;17.00;99.90;;;;;;4922888;29;20063;-95
2021/09/25 03:57:25;;;;;;;3.22;2.60;;;17.00;99.90;;;;;;4939105;29;20028;-93
2021/09/25 03:59:51;;;;;;;5.53;2.65;;;17.00;99.90;;;;;;4922158;29;20062;-94
2021/09/25 04:02:16;;;;;;;3.78;2.75;;;17.00;99.90;;;;;;4922563;29;20042;-93
2021/09/25 04:04:42;;;;;;;6.13;2.65;;;17.00;99.90;;;;;;4922575;29;20035;-94
2021/09/25 04:07:08;;;;;;;2.80;2.45;;;17.00;99.90;;;;;;4922489;29;20024;-92
2021/09/25 04:09:33;;;;;;;3.63;3.08;;;17.00;99.90;;;;;;4922149;29;20442;-93
2021/09/25 04:11:59;;;;;;;3.83;3.35;;;17.00;99.90;;;;;;4922152;29;20043;-93
2021/09/25 04:14:25;;;;;;;7.43;4.40;;;16.90;99.90;;;;;;4924367;29;20027;-94
2021/09/25 04:16:50;;;;;;;6.22;4.57;;;17.00;99.90;;;;;;4921495;29;20035;-94
2021/09/25 04:19:16;;;;;;;5.95;4.82;;;16.90;99.90;;;;;;4927386;29;20038;-93
2021/09/25 04:21:42;;;;;;;6.43;4.57;;;16.90;99.90;;;;;;4929373;29;20048;-93
2021/09/25 04:24:08;;;;;;;5.75;4.55;;;16.90;99.90;;;;;;4922478;29;20074;-94
2021/09/25 04:26:34;;;;;;;8.75;5.40;;;16.90;99.90;;;;;;4938032;29;20147;-94
2021/09/25 04:29:00;;;;;;;6.05;5.45;;;16.90;99.90;;;;;;4921779;29;20502;-94
2021/09/25 04:31:25;;;;;;;6.43;4.95;;;16.80;99.90;;;;;;4920922;29;20597;-93
2021/09/25 04:33:53;;;;;;;9.27;5.45;;;16.80;99.90;;;;;;4938573;29;20441;-93
2021/09/25 04:36:18;;;;;;;9.27;5.10;;;16.80;99.90;;;;;;4921794;29;20066;-93
2021/09/25 04:38:44;;;;;;;7.38;4.85;;;16.80;99.90;;;;;;4921809;29;20056;-92
2021/09/25 04:41:10;;;;;;;9.50;5.68;;;16.70;99.90;;;;;;4921556;29;20051;-94
2021/09/25 04:43:37;;;;;;;9.27;5.72;;;16.70;99.90;;;;;;4922035;29;20020;-93
2021/09/25 04:46:02;;;;;;;8.18;6.35;;;16.70;99.90;;;;;;4933121;29;20059;-93
2021/09/25 04:48:28;;;;;;;10.27;6.20;;;16.60;99.90;;;;;;4921882;29;20019;-94
2021/09/25 04:50:54;;;;;;;9.88;6.22;;;16.60;99.90;;;;;;4921580;29;20036;-94
2021/09/25 04:53:20;;;;;;;10.85;6.68;;;16.60;99.90;;;;;;4921914;29;20038;-92
2021/09/25 04:55:46;;;;;;;8.70;7.18;;;16.60;99.90;;;;;;4905298;29;20054;-93
2021/09/25 04:58:12;;;;;;;9.80;6.15;;;16.60;99.90;;;;;;4921460;29;20478;-92
2021/09/25 05:00:38;;;;;;;9.32;6.75;;;16.60;99.90;;;;;;4921756;29;20043;-93
2021/09/25 05:03:04;;;;;;;9.80;6.68;;;16.60;99.90;;;;;;4921786;29;20032;-93
2021/09/25 05:05:31;;;;;;;8.82;6.25;;;16.60;99.90;;;;;;4921854;29;20075;-92
2021/09/25 05:07:56;;;;;;;9.32;6.13;;;16.50;99.90;;;;;;4921604;29;20110;-93
2021/09/25 05:10:22;;;;;;;10.80;5.80;;;16.60;99.90;;;;;;4921548;29;20054;-93
2021/09/25 05:12:48;;;;;;;8.10;5.70;;;16.60;99.90;;;;;;4920886;29;20023;-94
2021/09/25 05:15:16;;;;;;;8.55;5.03;;;16.60;99.90;;;;;;4921632;29;20016;-93
2021/09/25 05:17:42;;;;;;;8.82;4.72;;;16.60;99.90;;;;;;4926755;29;20895;-92
2021/09/25 05:20:09;;;;;;;5.65;4.32;;;16.50;99.90;;;;;;4920528;29;20063;-93
2021/09/25 05:22:35;;;;;;;5.93;4.03;;;16.50;99.90;;;;;;4920923;29;20027;-92
2021/09/25 05:25:01;;;;;;;6.57;4.47;;;16.50;99.90;;;;;;4920299;29;20045;-93
2021/09/25 05:27:27;;;;;;;6.47;4.60;;;16.50;99.90;;;;;;4921754;29;20087;-93
2021/09/25 05:29:53;;;;;;;4.55;3.83;;;16.50;99.90;;;;;;4920986;29;20032;-92
2021/09/25 05:32:19;;;;;;;4.65;3.30;;;16.50;99.90;;;;;;4921151;29;20031;-94
2021/09/25 05:34:45;;;;;;;4.95;3.83;;;16.50;99.90;;;;;;4937876;29;20028;-94
2021/09/25 05:37:16;;;;;;;5.13;3.47;;;16.50;99.90;;;;;;4937607;29;20384;-93
2021/09/25 05:39:43;;;;;;;6.55;4.80;;;16.50;99.90;;;;;;4922098;29;20090;-93
2021/09/25 05:42:08;;;;;;;6.38;4.40;;;16.50;99.90;;;;;;4921007;29;20050;-95
2021/09/25 05:44:34;;;;;;;6.72;4.80;;;16.50;99.90;;;;;;4920162;29;20533;-93
2021/09/25 05:47:00;;;;;;;6.50;4.28;;;16.50;99.90;;;;;;4941123;29;20036;-93
2021/09/25 05:49:25;;;;;;;9.13;5.47;;;16.50;99.90;;;;;;4932045;29;20020;-93
2021/09/25 05:51:51;;;;;;;4.70;3.38;;;16.50;99.90;;;;;;4929507;29;20121;-93
2021/09/25 05:54:17;;;;;;;6.30;4.18;;;16.50;99.90;;;;;;4926824;29;20030;-93
2021/09/25 05:56:42;;;;;;;11.90;6.10;;;16.50;99.90;;;;;;4925624;29;20111;-93
2021/09/25 05:59:08;;;;;;;13.68;6.15;;;16.50;99.90;;;;;;4921575;29;20051;-94
2021/09/25 06:01:34;;;;;;;8.55;5.47;;;16.50;99.90;;;;;;4919510;29;20092;-93
2021/09/25 06:04:00;;;;;;;11.27;7.63;;;16.50;99.90;;;;;;4919326;29;20039;-93
2021/09/25 06:06:27;;;;;;;11.80;7.15;;;16.50;99.90;;;;;;4918801;29;20050;-94
2021/09/25 06:08:53;;;;;;;9.05;6.25;;;16.50;99.90;;;;;;4919076;29;20024;-94
2021/09/25 06:11:19;;;;;;;9.60;6.32;;;16.50;99.90;;;;;;4936514;29;20163;-94
2021/09/25 06:13:45;;;;;;;6.90;4.22;;;16.50;99.90;;;;;;4919714;29;20031;-93
2021/09/25 06:16:10;;;;;;;5.53;4.85;;;16.50;99.90;;;;;;4919351;29;20091;-94
2021/09/25 06:18:36;;;;;;;5.93;4.68;;;16.50;99.90;;;;;;4918970;29;20068;-94
2021/09/25 06:21:01;;;;;;;6.43;4.55;;;16.60;99.90;;;;;;4919820;29;20498;-93
2021/09/25 06:23:27;;;;;;;6.15;4.60;;;16.60;99.90;;;;;;4919704;29;20024;-93
2021/09/25 06:25:53;;;;;;;7.18;4.80;;;16.60;99.90;;;;;;4920346;29;20126;-93
2021/09/25 06:28:18;;;;;;;6.88;5.25;;;16.60;99.90;;;;;;4920921;29;20477;-92
2021/09/25 06:30:44;;;;;;;6.90;4.72;;;16.60;99.90;;;;;;4920930;29;20031;-93
2021/09/25 06:33:11;;;;;;;8.13;5.20;;;16.70;99.90;;;;;;4920205;29;20027;-92
2021/09/25 06:35:37;;;;;;;8.73;5.95;;;16.70;99.90;;;;;;4916582;29;20024;-93
2021/09/25 06:38:03;;;;;;;6.85;5.60;;;16.70;99.90;;;;;;4920489;29;20119;-92
2021/09/25 06:40:29;;;;;;;6.95;4.82;;;16.70;99.90;;;;;;4920303;29;20122;-91
2021/09/25 06:42:55;;;;;;;8.10;5.60;;;16.70;99.90;;;;;;4920280;29;20063;-92
2021/09/25 06:45:20;;;;;;;6.00;5.00;;;16.70;99.90;;;;;;4951959;29;20043;-93
2021/09/25 06:47:46;;;;;;;6.63;5.38;;;16.70;99.90;;;;;;4919819;29;20027;-94
2021/09/25 06:50:12;;;;;;;8.85;6.32;;;16.80;99.90;;;;;;4919985;29;20438;-92
2021/09/25 06:52:38;;;;;;;6.68;5.40;;;16.80;99.90;;;;;;4919629;29;20031;-92
2021/09/25 06:55:05;;;;;;;9.50;5.78;;;16.80;99.90;;;;;;4920066;29;20397;-93
2021/09/25 06:57:31;;;;;;;6.13;4.75;;;16.80;99.90;;;;;;4922227;29;20023;-93
2021/09/25 06:59:57;;;;;;;8.63;6.32;;;16.80;99.90;;;;;;4936635;29;20107;-93
2021/09/25 07:02:23;;;;;;;7.25;5.65;;;16.80;99.90;;;;;;4920179;29;20067;-93
2021/09/25 07:04:48;;;;;;;12.45;7.20;;;16.90;99.90;;;;;;4919825;29;20481;-93
2021/09/25 07:07:14;;;;;;;7.03;5.40;;;16.90;99.90;;;;;;4919800;29;20034;-94
2021/09/25 07:09:41;;;;;;;9.52;5.40;;;16.90;99.90;;;;;;4927597;29;20553;-93
2021/09/25 07:12:10;;;;;;;9.63;6.68;;;16.90;99.90;;;;;;4927969;29;20036;-94
2021/09/25 07:14:36;;;;;;;8.10;5.88;;;16.90;99.90;;;;;;4939293;29;20032;-93
2021/09/25 07:17:02;;;;;;;7.82;5.22;;;16.90;99.90;;;;;;4922339;29;20035;-94
2021/09/25 07:19:28;;;;;;;9.95;5.68;;;17.00;99.90;;;;;;4924458;29;20128;-94
2021/09/25 07:21:53;;;;;;;11.73;5.53;;;17.00;99.90;;;;;;4919350;29;20063;-94
2021/09/25 07:24:19;;;;;;;9.95;5.88;;;17.00;99.90;;;;;;4918357;29;20563;-92
2021/09/25 07:26:45;;;;;;;10.05;6.30;;;17.00;99.90;;;;;;4918930;29;20027;-93
2021/09/25 07:29:10;;;;;;;15.75;6.82;;;17.00;99.90;;;;;;4933034;29;20035;-93
2021/09/25 07:31:36;;;;;;;10.20;6.18;;;17.00;99.90;;;;;;4917894;29;20020;-93
2021/09/25 07:34:02;;;;;;;11.30;7.00;;;17.00;99.90;;;;;;4918233;29;20120;-93
2021/09/25 07:36:28;;;;;;;11.98;7.05;;;17.10;99.90;;;;;;4921124;29;20043;-92
2021/09/25 07:38:55;;;;;;;12.48;7.35;;;17.00;99.90;;;;;;4921735;29;20028;-92
2021/09/25 07:41:24;;;;;;;12.32;7.35;;;17.00;99.90;;;;;;4905755;29;20039;-92
2021/09/25 07:43:51;;;;;;;17.03;8.00;;;17.00;99.90;;;;;;4921705;29;20071;-92
2021/09/25 07:46:17;;;;;;;8.63;5.88;;;17.10;99.90;;;;;;4921041;29;20075;-92
2021/09/25 07:48:42;;;;;;;11.48;6.72;;;17.00;99.90;;;;;;4921426;29;20028;-92
2021/09/25 07:51:08;;;;;;;12.35;7.57;;;17.10;99.90;;;;;;4921639;29;20550;-91
2021/09/25 07:53:34;;;;;;;14.18;7.65;;;17.10;99.90;;;;;;4921871;29;20496;-92
2021/09/25 07:56:00;;;;;;;13.63;7.68;;;17.00;99.90;;;;;;4938900;29;20110;-93
2021/09/25 07:58:25;;;;;;;13.05;7.97;;;17.00;99.90;;;;;;4921475;29;20473;-92
2021/09/25 08:00:51;;;;;;;12.63;8.30;;;17.10;99.90;;;;;;4919685;29;20058;-93
2021/09/25 08:03:18;;;;;;;13.25;8.07;;;17.10;99.90;;;;;;4920924;29;20382;-92
2021/09/25 08:05:43;;;;;;;13.38;8.27;;;17.10;99.90;;;;;;4921369;29;20520;-91
2021/09/25 08:08:10;;;;;;;15.38;8.73;;;17.10;99.90;;;;;;4921369;29;20023;-92
2021/09/25 08:10:36;;;;;;;13.38;7.55;;;17.10;99.90;;;;;;4930243;29;20035;-92
2021/09/25 08:13:01;;;;;;;13.10;8.32;;;17.10;99.90;;;;;;4926912;29;20122;-90
2021/09/25 08:15:27;;;;;;;14.65;9.27;;;17.20;99.90;;;;;;4921694;29;20190;-93
2021/09/25 08:17:53;;;;;;;20.95;9.02;;;17.30;99.90;;;;;;4921367;29;20040;-93
2021/09/25 08:20:20;;;;;;;13.13;7.65;;;17.30;99.90;;;;;;4920863;29;20047;-92
2021/09/25 08:22:47;;;;;;;14.98;7.93;;;17.40;99.90;;;;;;4920434;29;20031;-92
2021/09/25 08:25:13;;;;;;;15.13;8.25;;;17.50;99.90;;;;;;4920399;29;20107;-92
2021/09/25 08:27:40;;;;;;;12.77;7.68;;;17.60;99.90;;;;;;4921042;29;20050;-92
2021/09/25 08:30:08;;;;;;;12.77;6.57;;;17.70;99.90;;;;;;4920749;29;20023;-91
2021/09/25 08:32:34;;;;;;;10.52;6.88;;;17.80;99.90;;;;;;4921259;29;20032;-94
2021/09/25 08:35:00;;;;;;;9.35;5.25;;;17.90;99.90;;;;;;4920798;29;20035;-94
2021/09/25 08:37:26;;;;;;;6.75;4.63;;;18.00;99.90;;;;;;4922277;29;20031;-93
2021/09/25 08:39:51;;;;;;;7.07;4.32;;;18.10;99.90;;;;;;4922469;29;20032;-94
2021/09/25 08:42:19;;;;;;;7.25;4.05;;;18.10;99.90;;;;;;4922155;29;20058;-94
2021/09/25 08:44:50;;;;;;;2.90;2.22;;;18.20;99.90;;;;;;4922214;29;20104;-93
2021/09/25 08:47:21;;;;;;;5.78;3.33;;;18.30;99.90;;;;;;4920790;29;20024;-92
2021/09/25 08:49:47;;;;;;;;;;;18.30;99.90;;;;;;4922380;29;20028;-93
2021/09/25 08:52:13;;;;;;;5.22;3.35;;;18.40;99.90;;;;;;4921108;29;19911;-92
2021/09/25 08:54:39;;;;;;;4.55;2.50;;;18.40;99.90;;;;;;4921026;29;20019;-95
2021/09/25 08:57:06;;;;;;;4.82;2.63;;;18.50;99.90;;;;;;4917926;29;20485;-95
2021/09/25 08:59:32;;;;;;;3.75;2.35;;;18.50;99.90;;;;;;4920586;29;20019;-93
2021/09/25 09:02:13;;;;;;;4.30;2.28;;;18.50;99.90;;;;;;4920513;29;20091;-93
2021/09/25 09:04:41;;;;;;;3.05;2.30;;;18.50;99.90;;;;;;4937519;29;20024;-95
2021/09/25 09:07:13;;;;;;;2.70;2.03;;;18.50;99.90;;;;;;4918878;29;20055;-95
2021/09/25 09:09:43;;;;;;;2.95;2.20;;;18.60;99.90;;;;;;4921403;29;20024;-95
2021/09/25 09:12:09;;;;;;;3.65;2.38;;;18.50;99.90;;;;;;4921511;29;20114;-95
2021/09/25 09:14:46;;;;;;;3.28;2.38;;;18.60;99.90;;;;;;4922901;29;20115;-94
2021/09/25 09:17:27;;;;;;;3.92;1.90;;;18.50;99.90;;;;;;4924131;29;20031;-94
2021/09/25 09:19:54;;;;;;;4.10;1.80;;;18.50;99.90;;;;;;4921277;29;20028;-95
2021/09/25 09:22:21;;;;;;;4.75;1.95;;;18.40;99.90;;;;;;4921633;29;20489;-94
2021/09/25 09:24:50;;;;;;;3.33;2.20;;;18.40;99.90;;;;;;4923464;29;20122;-94
2021/09/25 09:27:20;;;;;;;2.50;2.22;;;18.40;99.90;;;;;;4925259;29;20195;-93
2021/09/25 09:29:45;;;;;;;2.77;1.90;;;18.40;99.90;;;;;;4927209;29;20063;-94
2021/09/25 09:32:12;;;;;;;3.40;2.13;;;18.40;99.90;;;;;;4931988;29;20020;-94
2021/09/25 09:34:42;;;;;;;4.97;2.42;;;18.40;99.90;;;;;;4934415;29;20034;-95
2021/09/25 09:37:18;;;;;;;;;;;18.40;99.90;;;;;;4926872;29;20028;-93
2021/09/25 09:39:57;;;;;;;2.95;2.33;;;18.40;99.90;;;;;;4922310;29;19958;-92
2021/09/25 09:42:23;;;;;;;5.50;2.70;;;18.40;99.90;;;;;;4921486;29;20048;-94
2021/09/25 09:44:52;;;;;;;4.57;2.83;;;18.50;99.90;;;;;;4938167;29;20047;-93
2021/09/25 09:47:21;;;;;;;4.13;2.38;;;18.50;99.90;;;;;;4920714;29;20023;-95
2021/09/25 09:49:51;;;;;;;5.53;2.88;;;18.60;99.90;;;;;;4921282;29;20031;-93
2021/09/25 09:52:18;;;;;;;3.65;2.97;;;18.60;99.90;;;;;;4920955;29;20047;-94
2021/09/25 09:54:46;;;;;;;5.80;3.15;;;18.60;99.90;;;;;;4921485;29;20028;-94
2021/09/25 09:57:17;;;;;;;3.70;3.03;;;18.60;99.90;;;;;;4920995;29;20039;-95
2021/09/25 09:59:45;;;;;;;5.07;3.42;;;18.60;99.90;;;;;;4920579;29;20027;-95
2021/09/25 10:02:11;;;;;;;8.65;3.35;;;18.50;99.90;;;;;;4920729;29;20417;-95
2021/09/25 10:04:38;;;;;;;4.63;3.10;;;18.50;99.90;;;;;;4920612;29;20122;-94
2021/09/25 10:07:05;;;;;;;3.85;2.67;;;18.50;99.90;;;;;;4920677;29;20088;-94
2021/09/25 10:09:33;;;;;;;2.42;2.15;;;18.50;99.90;;;;;;4920407;29;20126;-94
2021/09/25 10:12:05;;;;;;;3.97;2.40;;;18.50;99.90;;;;;;4920268;29;20099;-94
2021/09/25 10:14:33;;;;;;;2.40;2.05;;;18.60;99.90;;;;;;4937494;29;20031;-93
2021/09/25 10:17:02;;;;;;;3.00;2.55;;;18.60;99.90;;;;;;4920845;29;20122;-92
2021/09/25 10:19:32;;;;;;;4.55;2.38;;;18.60;99.90;;;;;;4922676;29;20032;-94
2021/09/25 10:22:12;;;;;;;2.92;2.30;;;18.70;99.90;;;;;;4928593;29;20700;-93
2021/09/25 10:24:45;;;;;;;4.60;3.15;;;18.70;99.90;;;;;;4950314;29;20078;-93
2021/09/25 10:27:11;;;;;;;6.97;2.92;;;18.80;99.90;;;;;;4936785;29;20028;-95
2021/09/25 10:29:48;;;;;;;4.95;3.60;;;18.80;99.90;;;;;;4924285;29;20027;-95
2021/09/25 10:32:22;;;;;;;3.78;2.58;;;18.80;99.90;;;;;;4939529;29;20051;-94
2021/09/25 10:35:14;;;;;;;6.07;3.38;;;18.80;99.90;;;;;;4927528;29;20043;-94
2021/09/25 10:37:54;;;;;;;4.55;3.40;;;18.80;99.90;;;;;;4931897;29;20027;-94
2021/09/25 10:40:26;;;;;;;4.25;3.10;;;18.90;99.90;;;;;;4933820;29;20177;-95
2021/09/25 10:42:59;;;;;;;3.97;3.00;;;19.00;99.90;;;;;;4931657;29;20398;-94
2021/09/25 10:45:31;;;;;;;4.32;2.67;;;19.00;99.90;;;;;;4926051;29;20050;-94
2021/09/25 10:48:16;;;;;;;5.38;2.90;;;19.10;99.90;;;;;;4932987;29;20038;-94
2021/09/25 10:51:11;;;;;;;3.63;2.45;;;19.20;99.90;;;;;;4927368;29;20149;-95
2021/09/25 10:53:39;;;;;;;3.88;2.70;;;19.30;99.90;;;;;;4927741;29;20382;-95
2021/09/25 10:56:07;;;;;;;3.55;2.72;;;19.30;99.90;;;;;;4927506;29;20036;-93
2021/09/25 10:58:37;;;;;;;2.22;2.03;;;19.20;99.90;;;;;;4925063;29;20031;-92
2021/09/25 11:01:11;;;;;;;3.65;2.13;;;19.30;99.90;;;;;;4916417;29;20084;-93
2021/09/25 11:03:43;;;;;;;2.38;2.10;;;19.30;99.90;;;;;;4920603;29;20176;-94
2021/09/25 11:06:11;;;;;;;3.42;2.30;;;19.30;99.90;;;;;;4916855;29;20104;-92
2021/09/25 11:08:39;;;;;;;3.17;2.17;;;19.30;99.90;;;;;;4921131;29;20036;-93
2021/09/25 11:11:10;;;;;;;1.90;1.65;;;19.30;99.90;;;;;;4930193;29;20028;-93
2021/09/25 11:14:00;;;;;;;3.42;2.25;;;19.40;99.90;;;;;;4921684;29;20024;-93
2021/09/25 11:17:01;;;;;;;3.65;2.13;;;19.40;99.90;;;;;;4919933;29;20032;-93
2021/09/25 11:19:28;;;;;;;2.28;1.90;;;19.40;99.90;;;;;;4919518;29;20487;-93
2021/09/25 11:22:15;;;;;;;2.78;2.08;;;19.50;99.90;;;;;;4920319;29;20040;-92
2021/09/25 11:24:46;;;;;;;2.05;1.45;;;19.50;99.90;;;;;;4920692;29;20039;-93
2021/09/25 11:27:36;;;;;;;1.08;0.85;;;19.60;99.90;;;;;;4904913;29;20024;-92
2021/09/25 11:30:05;;;;;;;2.13;0.90;;;19.50;99.90;;;;;;4912934;29;20047;-90
2021/09/25 11:32:33;;;;;;;1.85;1.00;;;19.50;99.90;;;;;;4919572;29;20039;-92
2021/09/25 11:35:01;;;;;;;1.20;0.80;;;19.40;99.90;;;;;;4919550;29;20105;-93
2021/09/25 11:37:29;;;;;;;1.45;0.80;;;19.30;99.90;;;;;;4905566;29;20095;-92
2021/09/25 11:39:56;;;;;;;1.02;0.82;;;19.30;99.90;;;;;;4903567;29;20063;-93
2021/09/25 11:42:27;;;;;;;1.95;1.00;;;19.30;99.90;;;;;;4919203;29;20044;-94
2021/09/25 11:45:03;;;;;;;2.70;0.75;;;19.40;99.90;;;;;;4903171;29;20581;-92
2021/09/25 11:47:30;;;;;;;2.85;1.00;;;19.50;99.90;;;;;;4933604;29;20028;-93
2021/09/25 11:49:59;;;;;;;1.10;0.80;;;19.60;99.90;;;;;;4918680;29;20032;-93
2021/09/25 11:52:26;;;;;;;1.58;0.98;;;19.70;99.90;;;;;;4918378;29;20474;-93
2021/09/25 11:54:52;;;;;;;1.80;1.20;;;19.70;99.90;;;;;;4920784;29;20028;-92
2021/09/25 11:57:23;;;;;;;3.00;1.75;;;19.80;99.90;;;;;;4919554;29;20123;-92
2021/09/25 11:59:51;;;;;;;3.35;1.52;;;19.80;99.90;;;;;;4924066;29;20475;-92
2021/09/25 12:02:45;;;;;;;2.30;1.60;;;19.80;99.90;;;;;;4924393;29;20039;-94
2021/09/25 12:05:29;;;;;;;4.70;2.05;;;19.90;99.90;;;;;;4924545;29;20035;-94
2021/09/25 12:07:57;;;;;;;2.53;1.00;;;19.90;99.90;;;;;;4923339;29;20478;-94
2021/09/25 12:10:38;;;;;;;1.80;1.30;;;20.00;99.90;;;;;;4923558;29;20040;-92
2021/09/25 12:13:09;;;;;;;2.40;1.10;;;20.00;99.90;;;;;;4936970;29;20115;-93
2021/09/25 12:15:37;;;;;;;2.13;1.65;;;20.00;99.90;;;;;;4922072;29;20035;-92
2021/09/25 12:18:08;;;;;;;3.50;1.98;;;20.10;99.90;;;;;;4921114;29;20035;-92
2021/09/25 12:20:35;;;;;;;2.45;0.82;;;20.10;99.90;;;;;;4923374;29;20058;-94
2021/09/25 12:23:03;;;;;;;2.67;1.10;;;20.00;99.90;;;;;;4920755;29;20051;-92
2021/09/25 12:25:29;;;;;;;3.80;1.65;;;19.90;99.90;;;;;;4922666;29;20134;-93
2021/09/25 12:27:55;;;;;;;1.80;1.00;;;19.80;99.90;;;;;;4924530;29;20087;-93
2021/09/25 12:30:21;;;;;;;1.50;0.82;;;19.70;99.90;;;;;;4925406;29;20060;-94
2021/09/25 12:33:03;;;;;;;2.35;1.40;;;19.60;99.90;;;;;;4924421;29;20020;-94
2021/09/25 12:35:29;;;;;;;2.00;1.13;;;19.60;99.90;;;;;;4922555;29;20027;-94
2021/09/25 12:37:55;;;;;;;1.80;1.13;;;19.60;99.90;;;;;;4922043;29;20492;-93
2021/09/25 12:40:22;;;;;;;2.03;1.20;;;19.60;99.90;;;;;;4924730;29;20028;-93
2021/09/25 12:42:51;;;;;;;2.10;1.00;;;19.60;99.90;;;;;;4936750;29;20031;-94
2021/09/25 12:45:18;;;;;;;2.83;1.10;;;19.70;99.90;;;;;;4926801;29;21319;-95
2021/09/25 12:47:44;;;;;;;1.35;1.02;;;19.70;99.90;;;;;;4922716;29;20046;-94